sensor_id;sensor_type;location;lat;lon;timestamp;P1;durP1;ratioP1;P2;durP2;ratioP2
62580;SDS011;48640;48.770;9.148;2023-04-25T00:00:48;4.13;;;1.65;;
62580;SDS011;48640;48.770;9.148;2023-04-25T00:03:15;2.72;;;1.30;;
62580;SDS011;48640;48.770;9.148;2023-04-25T00:05:44;2.40;;;1.10;;
62580;SDS011;48640;48.770;9.148;2023-04-25T00:08:11;3.42;;;1.40;;
62580;SDS011;48640;48.770;9.148;2023-04-25T00:10:38;4.28;;;1.65;;
62580;SDS011;48640;48.770;9.148;2023-04-25T00:13:07;3.50;;;1.77;;
62580;SDS011;48640;48.770;9.148;2023-04-25T00:15:34;3.00;;;1.50;;
62580;SDS011;48640;48.770;9.148;2023-04-25T00:18:03;4.38;;;1.80;;
62580;SDS011;48640;48.770;9.148;2023-04-25T00:20:30;3.40;;;1.40;;
62580;SDS011;48640;48.770;9.148;2023-04-25T00:22:57;3.25;;;1.88;;
62580;SDS011;48640;48.770;9.148;2023-04-25T00:25:24;3.70;;;1.73;;
62580;SDS011;48640;48.770;9.148;2023-04-25T00:27:54;3.08;;;1.50;;
62580;SDS011;48640;48.770;9.148;2023-04-25T00:30:23;2.30;;;1.40;;
62580;SDS011;48640;48.770;9.148;2023-04-25T00:32:50;3.47;;;1.60;;
62580;SDS011;48640;48.770;9.148;2023-04-25T00:35:18;2.63;;;1.60;;
62580;SDS011;48640;48.770;9.148;2023-04-25T00:37:46;2.83;;;1.38;;
62580;SDS011;48640;48.770;9.148;2023-04-25T00:40:13;2.33;;;1.20;;
62580;SDS011;48640;48.770;9.148;2023-04-25T00:42:39;3.53;;;1.50;;
62580;SDS011;48640;48.770;9.148;2023-04-25T00:45:07;4.18;;;1.65;;
62580;SDS011;48640;48.770;9.148;2023-04-25T00:47:39;2.17;;;1.35;;
62580;SDS011;48640;48.770;9.148;2023-04-25T00:50:07;3.50;;;1.45;;
62580;SDS011;48640;48.770;9.148;2023-04-25T00:52:35;3.72;;;1.50;;
62580;SDS011;48640;48.770;9.148;2023-04-25T00:55:02;2.22;;;1.20;;
62580;SDS011;48640;48.770;9.148;2023-04-25T00:57:29;2.22;;;1.27;;
62580;SDS011;48640;48.770;9.148;2023-04-25T00:59:56;2.42;;;1.40;;
62580;SDS011;48640;48.770;9.148;2023-04-25T01:02:24;3.78;;;1.95;;
62580;SDS011;48640;48.770;9.148;2023-04-25T01:04:54;2.43;;;1.60;;
62580;SDS011;48640;48.770;9.148;2023-04-25T01:07:21;2.67;;;1.38;;
62580;SDS011;48640;48.770;9.148;2023-04-25T01:09:48;2.83;;;1.58;;
62580;SDS011;48640;48.770;9.148;2023-04-25T01:12:17;2.85;;;1.58;;
62580;SDS011;48640;48.770;9.148;2023-04-25T01:14:44;3.67;;;1.77;;
62580;SDS011;48640;48.770;9.148;2023-04-25T01:17:11;3.80;;;1.58;;
62580;SDS011;48640;48.770;9.148;2023-04-25T01:19:40;2.88;;;1.80;;
62580;SDS011;48640;48.770;9.148;2023-04-25T01:22:08;2.58;;;1.50;;
62580;SDS011;48640;48.770;9.148;2023-04-25T01:24:36;3.47;;;1.80;;
62580;SDS011;48640;48.770;9.148;2023-04-25T01:27:03;4.13;;;1.60;;
62580;SDS011;48640;48.770;9.148;2023-04-25T01:29:31;3.50;;;2.00;;
62580;SDS011;48640;48.770;9.148;2023-04-25T01:31:58;4.28;;;1.90;;
62580;SDS011;48640;48.770;9.148;2023-04-25T01:34:26;4.03;;;1.67;;
62580;SDS011;48640;48.770;9.148;2023-04-25T01:36:53;4.40;;;1.70;;
62580;SDS011;48640;48.770;9.148;2023-04-25T01:39:21;4.05;;;1.95;;
62580;SDS011;48640;48.770;9.148;2023-04-25T01:41:48;4.25;;;1.90;;
62580;SDS011;48640;48.770;9.148;2023-04-25T01:44:15;3.13;;;1.50;;
62580;SDS011;48640;48.770;9.148;2023-04-25T01:46:42;3.90;;;1.90;;
62580;SDS011;48640;48.770;9.148;2023-04-25T01:49:09;3.95;;;1.90;;
62580;SDS011;48640;48.770;9.148;2023-04-25T01:51:36;4.57;;;1.90;;
62580;SDS011;48640;48.770;9.148;2023-04-25T01:54:03;5.53;;;1.92;;
62580;SDS011;48640;48.770;9.148;2023-04-25T01:56:32;3.08;;;1.65;;
62580;SDS011;48640;48.770;9.148;2023-04-25T01:58:59;3.28;;;2.00;;
62580;SDS011;48640;48.770;9.148;2023-04-25T02:01:26;4.68;;;1.60;;
62580;SDS011;48640;48.770;9.148;2023-04-25T02:03:53;2.80;;;1.67;;
62580;SDS011;48640;48.770;9.148;2023-04-25T02:06:19;3.58;;;1.90;;
62580;SDS011;48640;48.770;9.148;2023-04-25T02:08:46;3.47;;;1.90;;
62580;SDS011;48640;48.770;9.148;2023-04-25T02:11:13;3.88;;;1.98;;
62580;SDS011;48640;48.770;9.148;2023-04-25T02:13:41;4.18;;;1.85;;
62580;SDS011;48640;48.770;9.148;2023-04-25T02:16:08;3.28;;;2.17;;
62580;SDS011;48640;48.770;9.148;2023-04-25T02:18:35;3.05;;;1.60;;
62580;SDS011;48640;48.770;9.148;2023-04-25T02:21:04;3.72;;;2.13;;
62580;SDS011;48640;48.770;9.148;2023-04-25T02:23:31;3.50;;;1.80;;
62580;SDS011;48640;48.770;9.148;2023-04-25T02:25:58;3.05;;;1.73;;
62580;SDS011;48640;48.770;9.148;2023-04-25T02:28:25;4.03;;;1.90;;
62580;SDS011;48640;48.770;9.148;2023-04-25T02:30:53;4.43;;;1.90;;
62580;SDS011;48640;48.770;9.148;2023-04-25T02:33:20;4.65;;;2.00;;
62580;SDS011;48640;48.770;9.148;2023-04-25T02:35:47;4.38;;;2.50;;
62580;SDS011;48640;48.770;9.148;2023-04-25T02:38:14;3.75;;;1.92;;
62580;SDS011;48640;48.770;9.148;2023-04-25T02:40:41;5.65;;;1.80;;
62580;SDS011;48640;48.770;9.148;2023-04-25T02:43:08;3.55;;;1.90;;
62580;SDS011;48640;48.770;9.148;2023-04-25T02:45:34;4.47;;;1.92;;
62580;SDS011;48640;48.770;9.148;2023-04-25T02:48:04;5.90;;;2.58;;
62580;SDS011;48640;48.770;9.148;2023-04-25T02:50:31;3.00;;;1.50;;
62580;SDS011;48640;48.770;9.148;2023-04-25T02:52:58;2.65;;;1.75;;
62580;SDS011;48640;48.770;9.148;2023-04-25T02:55:25;5.50;;;2.00;;
62580;SDS011;48640;48.770;9.148;2023-04-25T02:57:52;5.40;;;1.70;;
62580;SDS011;48640;48.770;9.148;2023-04-25T03:00:20;3.63;;;2.17;;
62580;SDS011;48640;48.770;9.148;2023-04-25T03:02:47;3.92;;;2.00;;
62580;SDS011;48640;48.770;9.148;2023-04-25T03:05:15;4.55;;;2.35;;
62580;SDS011;48640;48.770;9.148;2023-04-25T03:07:42;3.92;;;2.17;;
62580;SDS011;48640;48.770;9.148;2023-04-25T03:10:10;5.28;;;1.80;;
62580;SDS011;48640;48.770;9.148;2023-04-25T03:12:38;3.42;;;1.90;;
62580;SDS011;48640;48.770;9.148;2023-04-25T03:15:05;3.25;;;2.28;;
62580;SDS011;48640;48.770;9.148;2023-04-25T03:17:32;3.33;;;1.50;;
62580;SDS011;48640;48.770;9.148;2023-04-25T03:19:59;2.88;;;1.48;;
62580;SDS011;48640;48.770;9.148;2023-04-25T03:22:30;3.45;;;1.83;;
62580;SDS011;48640;48.770;9.148;2023-04-25T03:24:57;3.90;;;2.30;;
62580;SDS011;48640;48.770;9.148;2023-04-25T03:27:23;3.65;;;1.80;;
62580;SDS011;48640;48.770;9.148;2023-04-25T03:29:50;3.50;;;1.75;;
62580;SDS011;48640;48.770;9.148;2023-04-25T03:32:17;5.57;;;2.20;;
62580;SDS011;48640;48.770;9.148;2023-04-25T03:34:44;3.28;;;1.60;;
62580;SDS011;48640;48.770;9.148;2023-04-25T03:37:11;4.35;;;1.65;;
62580;SDS011;48640;48.770;9.148;2023-04-25T03:39:39;3.88;;;1.77;;
62580;SDS011;48640;48.770;9.148;2023-04-25T03:42:06;4.43;;;2.08;;
62580;SDS011;48640;48.770;9.148;2023-04-25T03:44:33;2.70;;;1.70;;
62580;SDS011;48640;48.770;9.148;2023-04-25T03:46:59;3.65;;;1.65;;
62580;SDS011;48640;48.770;9.148;2023-04-25T03:49:26;4.70;;;2.20;;
62580;SDS011;48640;48.770;9.148;2023-04-25T03:51:53;3.00;;;1.90;;
62580;SDS011;48640;48.770;9.148;2023-04-25T03:54:20;5.35;;;2.20;;
62580;SDS011;48640;48.770;9.148;2023-04-25T03:56:48;2.88;;;2.00;;
62580;SDS011;48640;48.770;9.148;2023-04-25T03:59:15;5.07;;;2.10;;
62580;SDS011;48640;48.770;9.148;2023-04-25T04:01:41;2.95;;;1.65;;
62580;SDS011;48640;48.770;9.148;2023-04-25T04:04:08;2.88;;;1.80;;
62580;SDS011;48640;48.770;9.148;2023-04-25T04:06:35;3.28;;;1.85;;
62580;SDS011;48640;48.770;9.148;2023-04-25T04:09:02;5.28;;;2.00;;
62580;SDS011;48640;48.770;9.148;2023-04-25T04:11:28;4.97;;;2.33;;
62580;SDS011;48640;48.770;9.148;2023-04-25T04:13:57;3.22;;;2.03;;
62580;SDS011;48640;48.770;9.148;2023-04-25T04:16:24;4.25;;;2.55;;
62580;SDS011;48640;48.770;9.148;2023-04-25T04:18:51;3.58;;;2.13;;
62580;SDS011;48640;48.770;9.148;2023-04-25T04:21:18;4.15;;;2.25;;
62580;SDS011;48640;48.770;9.148;2023-04-25T04:23:44;4.22;;;2.25;;
62580;SDS011;48640;48.770;9.148;2023-04-25T04:26:13;6.55;;;2.20;;
62580;SDS011;48640;48.770;9.148;2023-04-25T04:28:41;4.00;;;2.25;;
62580;SDS011;48640;48.770;9.148;2023-04-25T04:31:10;3.40;;;2.10;;
62580;SDS011;48640;48.770;9.148;2023-04-25T04:33:37;7.72;;;2.75;;
62580;SDS011;48640;48.770;9.148;2023-04-25T04:36:05;6.22;;;2.72;;
62580;SDS011;48640;48.770;9.148;2023-04-25T04:38:32;6.53;;;3.00;;
62580;SDS011;48640;48.770;9.148;2023-04-25T04:40:59;3.67;;;1.90;;
62580;SDS011;48640;48.770;9.148;2023-04-25T04:43:26;4.80;;;2.55;;
62580;SDS011;48640;48.770;9.148;2023-04-25T04:45:53;5.50;;;2.13;;
62580;SDS011;48640;48.770;9.148;2023-04-25T04:48:22;5.47;;;2.30;;
62580;SDS011;48640;48.770;9.148;2023-04-25T04:50:49;5.25;;;2.00;;
62580;SDS011;48640;48.770;9.148;2023-04-25T04:53:16;5.43;;;2.50;;
62580;SDS011;48640;48.770;9.148;2023-04-25T04:55:43;4.28;;;2.22;;
62580;SDS011;48640;48.770;9.148;2023-04-25T04:58:11;4.43;;;2.53;;
62580;SDS011;48640;48.770;9.148;2023-04-25T05:00:37;5.13;;;2.40;;
62580;SDS011;48640;48.770;9.148;2023-04-25T05:03:05;5.53;;;2.40;;
62580;SDS011;48640;48.770;9.148;2023-04-25T05:05:33;4.78;;;2.40;;
62580;SDS011;48640;48.770;9.148;2023-04-25T05:08:00;4.82;;;2.35;;
62580;SDS011;48640;48.770;9.148;2023-04-25T05:10:27;4.75;;;2.25;;
62580;SDS011;48640;48.770;9.148;2023-04-25T05:12:53;4.53;;;2.40;;
62580;SDS011;48640;48.770;9.148;2023-04-25T05:15:20;5.10;;;2.20;;
62580;SDS011;48640;48.770;9.148;2023-04-25T05:17:47;6.68;;;2.97;;
62580;SDS011;48640;48.770;9.148;2023-04-25T05:20:13;3.70;;;2.40;;
62580;SDS011;48640;48.770;9.148;2023-04-25T05:22:42;5.10;;;2.83;;
62580;SDS011;48640;48.770;9.148;2023-04-25T05:25:09;4.53;;;2.53;;
62580;SDS011;48640;48.770;9.148;2023-04-25T05:27:35;4.88;;;2.70;;
62580;SDS011;48640;48.770;9.148;2023-04-25T05:30:03;4.45;;;2.30;;
62580;SDS011;48640;48.770;9.148;2023-04-25T05:32:31;4.32;;;2.60;;
62580;SDS011;48640;48.770;9.148;2023-04-25T05:34:57;3.40;;;2.10;;
62580;SDS011;48640;48.770;9.148;2023-04-25T05:37:24;4.43;;;2.72;;
62580;SDS011;48640;48.770;9.148;2023-04-25T05:39:52;3.92;;;2.60;;
62580;SDS011;48640;48.770;9.148;2023-04-25T05:42:19;5.00;;;2.67;;
62580;SDS011;48640;48.770;9.148;2023-04-25T05:44:46;4.82;;;2.53;;
62580;SDS011;48640;48.770;9.148;2023-04-25T05:47:13;3.50;;;2.38;;
62580;SDS011;48640;48.770;9.148;2023-04-25T05:49:40;4.05;;;2.50;;
62580;SDS011;48640;48.770;9.148;2023-04-25T05:52:07;3.95;;;2.10;;
62580;SDS011;48640;48.770;9.148;2023-04-25T05:54:33;4.63;;;2.45;;
62580;SDS011;48640;48.770;9.148;2023-04-25T05:57:02;5.38;;;2.90;;
62580;SDS011;48640;48.770;9.148;2023-04-25T05:59:28;3.47;;;2.10;;
62580;SDS011;48640;48.770;9.148;2023-04-25T06:01:55;3.72;;;2.42;;
62580;SDS011;48640;48.770;9.148;2023-04-25T06:04:22;4.65;;;2.30;;
62580;SDS011;48640;48.770;9.148;2023-04-25T06:06:49;3.10;;;2.17;;
62580;SDS011;48640;48.770;9.148;2023-04-25T06:09:15;5.35;;;2.25;;
62580;SDS011;48640;48.770;9.148;2023-04-25T06:11:42;28.67;;;4.05;;
62580;SDS011;48640;48.770;9.148;2023-04-25T06:14:11;4.95;;;2.30;;
62580;SDS011;48640;48.770;9.148;2023-04-25T06:16:37;3.60;;;2.38;;
62580;SDS011;48640;48.770;9.148;2023-04-25T06:19:04;4.60;;;2.80;;
62580;SDS011;48640;48.770;9.148;2023-04-25T06:21:31;3.88;;;2.40;;
62580;SDS011;48640;48.770;9.148;2023-04-25T06:23:58;6.30;;;2.20;;
62580;SDS011;48640;48.770;9.148;2023-04-25T06:26:24;3.97;;;2.38;;
62580;SDS011;48640;48.770;9.148;2023-04-25T06:28:51;4.25;;;2.63;;
62580;SDS011;48640;48.770;9.148;2023-04-25T06:31:19;4.43;;;2.47;;
62580;SDS011;48640;48.770;9.148;2023-04-25T06:33:46;3.55;;;2.40;;
62580;SDS011;48640;48.770;9.148;2023-04-25T06:36:13;4.57;;;2.63;;
62580;SDS011;48640;48.770;9.148;2023-04-25T06:38:40;3.58;;;2.20;;
62580;SDS011;48640;48.770;9.148;2023-04-25T06:41:07;4.00;;;2.58;;
62580;SDS011;48640;48.770;9.148;2023-04-25T06:43:33;3.25;;;2.38;;
62580;SDS011;48640;48.770;9.148;2023-04-25T06:46:00;3.92;;;2.50;;
62580;SDS011;48640;48.770;9.148;2023-04-25T06:48:29;3.75;;;2.70;;
62580;SDS011;48640;48.770;9.148;2023-04-25T06:50:56;4.75;;;2.72;;
62580;SDS011;48640;48.770;9.148;2023-04-25T06:53:22;4.05;;;2.83;;
62580;SDS011;48640;48.770;9.148;2023-04-25T06:55:49;5.28;;;2.67;;
62580;SDS011;48640;48.770;9.148;2023-04-25T06:58:16;5.05;;;2.92;;
62580;SDS011;48640;48.770;9.148;2023-04-25T07:00:43;4.40;;;2.58;;
62580;SDS011;48640;48.770;9.148;2023-04-25T07:03:10;3.80;;;2.70;;
62580;SDS011;48640;48.770;9.148;2023-04-25T07:05:38;3.97;;;2.67;;
62580;SDS011;48640;48.770;9.148;2023-04-25T07:08:05;4.72;;;2.80;;
62580;SDS011;48640;48.770;9.148;2023-04-25T07:10:32;4.75;;;2.90;;
62580;SDS011;48640;48.770;9.148;2023-04-25T07:12:59;6.20;;;2.67;;
62580;SDS011;48640;48.770;9.148;2023-04-25T07:15:26;5.28;;;3.67;;
62580;SDS011;48640;48.770;9.148;2023-04-25T07:17:52;4.25;;;2.70;;
62580;SDS011;48640;48.770;9.148;2023-04-25T07:20:19;4.45;;;2.83;;
62580;SDS011;48640;48.770;9.148;2023-04-25T07:22:47;5.40;;;2.72;;
62580;SDS011;48640;48.770;9.148;2023-04-25T07:25:15;4.97;;;2.80;;
62580;SDS011;48640;48.770;9.148;2023-04-25T07:27:42;3.42;;;2.65;;
62580;SDS011;48640;48.770;9.148;2023-04-25T07:30:09;5.07;;;3.10;;
62580;SDS011;48640;48.770;9.148;2023-04-25T07:32:37;7.32;;;3.30;;
62580;SDS011;48640;48.770;9.148;2023-04-25T07:35:05;5.22;;;3.33;;
62580;SDS011;48640;48.770;9.148;2023-04-25T07:37:33;5.63;;;2.90;;
62580;SDS011;48640;48.770;9.148;2023-04-25T07:40:01;4.72;;;2.90;;
62580;SDS011;48640;48.770;9.148;2023-04-25T07:42:29;4.43;;;3.10;;
62580;SDS011;48640;48.770;9.148;2023-04-25T07:44:56;4.63;;;3.00;;
62580;SDS011;48640;48.770;9.148;2023-04-25T07:47:23;5.60;;;3.13;;
62580;SDS011;48640;48.770;9.148;2023-04-25T07:49:50;5.72;;;3.30;;
62580;SDS011;48640;48.770;9.148;2023-04-25T07:52:17;5.10;;;3.03;;
62580;SDS011;48640;48.770;9.148;2023-04-25T07:54:44;5.25;;;3.10;;
62580;SDS011;48640;48.770;9.148;2023-04-25T07:57:12;6.50;;;3.15;;
62580;SDS011;48640;48.770;9.148;2023-04-25T07:59:39;6.93;;;3.42;;
62580;SDS011;48640;48.770;9.148;2023-04-25T08:02:06;5.53;;;3.60;;
62580;SDS011;48640;48.770;9.148;2023-04-25T08:04:32;5.13;;;3.08;;
62580;SDS011;48640;48.770;9.148;2023-04-25T08:06:59;4.43;;;2.92;;
62580;SDS011;48640;48.770;9.148;2023-04-25T08:09:26;5.13;;;3.17;;
62580;SDS011;48640;48.770;9.148;2023-04-25T08:11:54;6.40;;;3.10;;
62580;SDS011;48640;48.770;9.148;2023-04-25T08:14:22;5.80;;;3.50;;
62580;SDS011;48640;48.770;9.148;2023-04-25T08:16:49;4.55;;;3.25;;
62580;SDS011;48640;48.770;9.148;2023-04-25T08:19:16;4.75;;;3.38;;
62580;SDS011;48640;48.770;9.148;2023-04-25T08:21:43;5.45;;;3.08;;
62580;SDS011;48640;48.770;9.148;2023-04-25T08:24:09;4.60;;;3.17;;
62580;SDS011;48640;48.770;9.148;2023-04-25T08:26:36;5.28;;;3.20;;
62580;SDS011;48640;48.770;9.148;2023-04-25T08:29:04;5.90;;;3.20;;
62580;SDS011;48640;48.770;9.148;2023-04-25T08:31:32;5.38;;;3.05;;
62580;SDS011;48640;48.770;9.148;2023-04-25T08:33:59;5.63;;;3.42;;
62580;SDS011;48640;48.770;9.148;2023-04-25T08:36:26;4.60;;;3.33;;
62580;SDS011;48640;48.770;9.148;2023-04-25T08:38:54;4.88;;;3.05;;
62580;SDS011;48640;48.770;9.148;2023-04-25T08:41:21;4.40;;;3.00;;
62580;SDS011;48640;48.770;9.148;2023-04-25T08:43:48;5.88;;;3.53;;
62580;SDS011;48640;48.770;9.148;2023-04-25T08:46:16;6.28;;;3.85;;
62580;SDS011;48640;48.770;9.148;2023-04-25T08:48:45;6.95;;;3.70;;
62580;SDS011;48640;48.770;9.148;2023-04-25T08:51:14;5.78;;;3.80;;
62580;SDS011;48640;48.770;9.148;2023-04-25T08:53:45;5.78;;;3.88;;
62580;SDS011;48640;48.770;9.148;2023-04-25T08:56:16;6.13;;;3.92;;
62580;SDS011;48640;48.770;9.148;2023-04-25T08:58:46;6.78;;;4.30;;
62580;SDS011;48640;48.770;9.148;2023-04-25T09:01:14;7.13;;;3.58;;
62580;SDS011;48640;48.770;9.148;2023-04-25T09:03:41;5.45;;;3.75;;
62580;SDS011;48640;48.770;9.148;2023-04-25T09:06:10;7.32;;;3.70;;
62580;SDS011;48640;48.770;9.148;2023-04-25T09:08:37;7.43;;;3.67;;
62580;SDS011;48640;48.770;9.148;2023-04-25T09:11:05;6.28;;;3.95;;
62580;SDS011;48640;48.770;9.148;2023-04-25T09:13:32;7.32;;;3.78;;
62580;SDS011;48640;48.770;9.148;2023-04-25T09:15:59;5.15;;;3.58;;
62580;SDS011;48640;48.770;9.148;2023-04-25T09:18:26;5.28;;;3.90;;
62580;SDS011;48640;48.770;9.148;2023-04-25T09:20:58;5.40;;;3.70;;
62580;SDS011;48640;48.770;9.148;2023-04-25T09:23:38;7.70;;;3.85;;
62580;SDS011;48640;48.770;9.148;2023-04-25T09:26:06;6.50;;;3.70;;
62580;SDS011;48640;48.770;9.148;2023-04-25T09:28:34;6.35;;;4.00;;
62580;SDS011;48640;48.770;9.148;2023-04-25T09:31:02;6.82;;;3.40;;
62580;SDS011;48640;48.770;9.148;2023-04-25T09:33:30;5.80;;;3.25;;
62580;SDS011;48640;48.770;9.148;2023-04-25T09:36:01;8.05;;;3.35;;
62580;SDS011;48640;48.770;9.148;2023-04-25T09:38:30;3.60;;;2.60;;
62580;SDS011;48640;48.770;9.148;2023-04-25T09:40:59;4.97;;;3.30;;
62580;SDS011;48640;48.770;9.148;2023-04-25T09:43:26;3.80;;;2.22;;
62580;SDS011;48640;48.770;9.148;2023-04-25T09:45:54;5.50;;;2.95;;
62580;SDS011;48640;48.770;9.148;2023-04-25T09:48:24;3.72;;;2.60;;
62580;SDS011;48640;48.770;9.148;2023-04-25T09:51:03;5.32;;;2.83;;
62580;SDS011;48640;48.770;9.148;2023-04-25T09:53:30;5.22;;;3.03;;
62580;SDS011;48640;48.770;9.148;2023-04-25T09:55:59;6.18;;;2.80;;
62580;SDS011;48640;48.770;9.148;2023-04-25T09:58:30;5.50;;;2.75;;
62580;SDS011;48640;48.770;9.148;2023-04-25T10:00:59;5.35;;;2.28;;
62580;SDS011;48640;48.770;9.148;2023-04-25T10:03:28;3.40;;;2.10;;
62580;SDS011;48640;48.770;9.148;2023-04-25T10:05:57;3.10;;;1.92;;
62580;SDS011;48640;48.770;9.148;2023-04-25T10:08:27;3.05;;;1.92;;
62580;SDS011;48640;48.770;9.148;2023-04-25T10:11:00;2.60;;;1.40;;
62580;SDS011;48640;48.770;9.148;2023-04-25T10:15:55;2.50;;;1.40;;
62580;SDS011;48640;48.770;9.148;2023-04-25T10:18:24;3.03;;;1.55;;
62580;SDS011;48640;48.770;9.148;2023-04-25T10:20:51;4.22;;;1.23;;
62580;SDS011;48640;48.770;9.148;2023-04-25T10:23:19;3.88;;;1.20;;
62580;SDS011;48640;48.770;9.148;2023-04-25T10:25:47;2.22;;;1.08;;
62580;SDS011;48640;48.770;9.148;2023-04-25T10:28:16;4.10;;;1.10;;
62580;SDS011;48640;48.770;9.148;2023-04-25T10:30:56;3.00;;;1.40;;
62580;SDS011;48640;48.770;9.148;2023-04-25T10:33:29;3.67;;;1.27;;
62580;SDS011;48640;48.770;9.148;2023-04-25T10:35:58;3.65;;;1.10;;
62580;SDS011;48640;48.770;9.148;2023-04-25T10:38:25;3.35;;;1.00;;
62580;SDS011;48640;48.770;9.148;2023-04-25T10:41:02;3.28;;;1.10;;
62580;SDS011;48640;48.770;9.148;2023-04-25T10:43:34;2.05;;;1.00;;
62580;SDS011;48640;48.770;9.148;2023-04-25T10:46:12;1.92;;;0.90;;
62580;SDS011;48640;48.770;9.148;2023-04-25T10:48:46;1.88;;;0.98;;
62580;SDS011;48640;48.770;9.148;2023-04-25T10:51:18;3.13;;;1.23;;
62580;SDS011;48640;48.770;9.148;2023-04-25T10:53:46;3.28;;;1.80;;
62580;SDS011;48640;48.770;9.148;2023-04-25T10:56:22;2.65;;;1.60;;
62580;SDS011;48640;48.770;9.148;2023-04-25T10:58:52;3.03;;;1.90;;
62580;SDS011;48640;48.770;9.148;2023-04-25T11:01:35;3.47;;;2.33;;
62580;SDS011;48640;48.770;9.148;2023-04-25T11:04:03;4.15;;;2.92;;
62580;SDS011;48640;48.770;9.148;2023-04-25T11:06:32;4.50;;;2.90;;
62580;SDS011;48640;48.770;9.148;2023-04-25T11:09:10;3.47;;;2.40;;
62580;SDS011;48640;48.770;9.148;2023-04-25T11:11:39;3.83;;;2.15;;
62580;SDS011;48640;48.770;9.148;2023-04-25T11:14:07;3.45;;;2.42;;
62580;SDS011;48640;48.770;9.148;2023-04-25T11:16:33;3.72;;;2.17;;
62580;SDS011;48640;48.770;9.148;2023-04-25T11:19:01;3.30;;;2.50;;
62580;SDS011;48640;48.770;9.148;2023-04-25T11:21:28;4.05;;;2.30;;
62580;SDS011;48640;48.770;9.148;2023-04-25T11:23:56;3.22;;;2.10;;
62580;SDS011;48640;48.770;9.148;2023-04-25T11:26:24;3.65;;;1.92;;
62580;SDS011;48640;48.770;9.148;2023-04-25T11:28:51;3.30;;;2.10;;
62580;SDS011;48640;48.770;9.148;2023-04-25T11:31:24;2.92;;;1.77;;
62580;SDS011;48640;48.770;9.148;2023-04-25T11:33:52;2.92;;;1.95;;
62580;SDS011;48640;48.770;9.148;2023-04-25T11:36:19;2.97;;;1.63;;
62580;SDS011;48640;48.770;9.148;2023-04-25T11:38:46;2.85;;;1.65;;
62580;SDS011;48640;48.770;9.148;2023-04-25T11:41:13;2.80;;;1.63;;
62580;SDS011;48640;48.770;9.148;2023-04-25T11:43:40;2.60;;;1.60;;
62580;SDS011;48640;48.770;9.148;2023-04-25T11:46:09;3.53;;;1.90;;
62580;SDS011;48640;48.770;9.148;2023-04-25T11:48:38;4.28;;;2.13;;
62580;SDS011;48640;48.770;9.148;2023-04-25T11:51:05;3.38;;;1.90;;
62580;SDS011;48640;48.770;9.148;2023-04-25T11:53:32;4.35;;;2.45;;
62580;SDS011;48640;48.770;9.148;2023-04-25T11:55:59;4.75;;;2.60;;
62580;SDS011;48640;48.770;9.148;2023-04-25T11:58:26;4.07;;;2.38;;
62580;SDS011;48640;48.770;9.148;2023-04-25T12:00:53;3.42;;;2.00;;
62580;SDS011;48640;48.770;9.148;2023-04-25T12:03:23;4.47;;;2.53;;
62580;SDS011;48640;48.770;9.148;2023-04-25T12:05:53;3.10;;;2.40;;
62580;SDS011;48640;48.770;9.148;2023-04-25T12:08:30;4.60;;;2.58;;
62580;SDS011;48640;48.770;9.148;2023-04-25T12:10:57;5.35;;;2.53;;
62580;SDS011;48640;48.770;9.148;2023-04-25T12:13:25;6.97;;;3.53;;
62580;SDS011;48640;48.770;9.148;2023-04-25T12:15:53;4.63;;;2.60;;
62580;SDS011;48640;48.770;9.148;2023-04-25T12:18:23;5.05;;;3.13;;
62580;SDS011;48640;48.770;9.148;2023-04-25T12:20:53;3.95;;;2.92;;
62580;SDS011;48640;48.770;9.148;2023-04-25T12:23:24;4.90;;;3.15;;
62580;SDS011;48640;48.770;9.148;2023-04-25T12:25:52;7.85;;;3.58;;
62580;SDS011;48640;48.770;9.148;2023-04-25T12:28:20;5.03;;;3.03;;
62580;SDS011;48640;48.770;9.148;2023-04-25T12:30:58;4.75;;;3.25;;
62580;SDS011;48640;48.770;9.148;2023-04-25T12:33:27;5.88;;;3.85;;
62580;SDS011;48640;48.770;9.148;2023-04-25T12:35:56;7.55;;;4.65;;
62580;SDS011;48640;48.770;9.148;2023-04-25T12:38:24;5.47;;;3.80;;
62580;SDS011;48640;48.770;9.148;2023-04-25T12:43:23;7.03;;;3.93;;
62580;SDS011;48640;48.770;9.148;2023-04-25T12:45:50;6.82;;;4.40;;
62580;SDS011;48640;48.770;9.148;2023-04-25T12:48:19;6.20;;;3.78;;
62580;SDS011;48640;48.770;9.148;2023-04-25T12:50:46;6.95;;;3.58;;
62580;SDS011;48640;48.770;9.148;2023-04-25T12:53:16;4.38;;;3.17;;
62580;SDS011;48640;48.770;9.148;2023-04-25T12:55:43;6.55;;;3.00;;
62580;SDS011;48640;48.770;9.148;2023-04-25T12:58:12;5.70;;;4.68;;
62580;SDS011;48640;48.770;9.148;2023-04-25T13:00:38;5.10;;;3.30;;
62580;SDS011;48640;48.770;9.148;2023-04-25T13:03:05;4.93;;;3.22;;
62580;SDS011;48640;48.770;9.148;2023-04-25T13:05:32;6.70;;;3.78;;
62580;SDS011;48640;48.770;9.148;2023-04-25T13:07:59;5.75;;;3.63;;
62580;SDS011;48640;48.770;9.148;2023-04-25T13:10:27;6.28;;;3.15;;
62580;SDS011;48640;48.770;9.148;2023-04-25T13:12:54;5.63;;;4.15;;
62580;SDS011;48640;48.770;9.148;2023-04-25T13:15:21;5.97;;;4.07;;
62580;SDS011;48640;48.770;9.148;2023-04-25T13:17:48;7.43;;;4.00;;
62580;SDS011;48640;48.770;9.148;2023-04-25T13:20:15;6.75;;;3.88;;
62580;SDS011;48640;48.770;9.148;2023-04-25T13:22:44;7.93;;;4.20;;
62580;SDS011;48640;48.770;9.148;2023-04-25T13:25:11;6.20;;;4.50;;
62580;SDS011;48640;48.770;9.148;2023-04-25T13:27:39;7.07;;;4.47;;
62580;SDS011;48640;48.770;9.148;2023-04-25T13:30:06;7.35;;;4.15;;
62580;SDS011;48640;48.770;9.148;2023-04-25T13:32:34;6.78;;;4.70;;
62580;SDS011;48640;48.770;9.148;2023-04-25T13:35:02;9.77;;;5.03;;
62580;SDS011;48640;48.770;9.148;2023-04-25T13:37:30;6.25;;;3.88;;
62580;SDS011;48640;48.770;9.148;2023-04-25T13:39:58;6.60;;;4.30;;
62580;SDS011;48640;48.770;9.148;2023-04-25T13:42:25;7.82;;;4.85;;
62580;SDS011;48640;48.770;9.148;2023-04-25T13:44:53;8.80;;;5.53;;
62580;SDS011;48640;48.770;9.148;2023-04-25T13:47:20;7.65;;;5.18;;
62580;SDS011;48640;48.770;9.148;2023-04-25T13:49:48;6.40;;;4.88;;
62580;SDS011;48640;48.770;9.148;2023-04-25T13:52:14;8.55;;;6.18;;
62580;SDS011;48640;48.770;9.148;2023-04-25T13:54:41;9.30;;;6.32;;
62580;SDS011;48640;48.770;9.148;2023-04-25T13:57:08;9.55;;;6.28;;
62580;SDS011;48640;48.770;9.148;2023-04-25T13:59:36;10.57;;;6.82;;
62580;SDS011;48640;48.770;9.148;2023-04-25T14:02:04;10.85;;;6.22;;
62580;SDS011;48640;48.770;9.148;2023-04-25T14:04:31;8.70;;;6.15;;
62580;SDS011;48640;48.770;9.148;2023-04-25T14:06:58;8.43;;;5.55;;
62580;SDS011;48640;48.770;9.148;2023-04-25T14:09:25;8.32;;;6.28;;
62580;SDS011;48640;48.770;9.148;2023-04-25T14:11:52;6.80;;;5.53;;
62580;SDS011;48640;48.770;9.148;2023-04-25T14:14:19;7.65;;;5.38;;
62580;SDS011;48640;48.770;9.148;2023-04-25T14:16:46;8.18;;;5.80;;
62580;SDS011;48640;48.770;9.148;2023-04-25T14:19:15;6.03;;;4.55;;
62580;SDS011;48640;48.770;9.148;2023-04-25T14:21:42;6.45;;;4.80;;
62580;SDS011;48640;48.770;9.148;2023-04-25T14:24:09;6.32;;;4.28;;
62580;SDS011;48640;48.770;9.148;2023-04-25T14:26:36;6.90;;;3.95;;
62580;SDS011;48640;48.770;9.148;2023-04-25T14:29:04;4.93;;;3.78;;
62580;SDS011;48640;48.770;9.148;2023-04-25T14:31:32;4.93;;;3.65;;
62580;SDS011;48640;48.770;9.148;2023-04-25T14:33:58;5.15;;;3.92;;
62580;SDS011;48640;48.770;9.148;2023-04-25T14:36:27;5.10;;;3.55;;
62580;SDS011;48640;48.770;9.148;2023-04-25T14:41:22;5.75;;;3.70;;
62580;SDS011;48640;48.770;9.148;2023-04-25T14:43:49;5.00;;;3.85;;
62580;SDS011;48640;48.770;9.148;2023-04-25T14:46:17;7.47;;;3.90;;
62580;SDS011;48640;48.770;9.148;2023-04-25T14:48:45;5.55;;;4.00;;
62580;SDS011;48640;48.770;9.148;2023-04-25T14:51:13;5.10;;;3.83;;
62580;SDS011;48640;48.770;9.148;2023-04-25T14:53:41;5.82;;;4.28;;
62580;SDS011;48640;48.770;9.148;2023-04-25T14:56:08;6.68;;;3.83;;
62580;SDS011;48640;48.770;9.148;2023-04-25T14:58:34;5.47;;;3.15;;